createdAt,value
2023-01-19T00:00:27.972Z,100002.84
2023-01-19T00:02:55.026Z,100012.19
2023-01-19T00:05:21.556Z,100016.66
2023-01-19T00:07:48.102Z,100014.38
2023-01-19T00:10:15.092Z,100014.38
2023-01-19T00:12:41.556Z,100014.00
2023-01-19T00:15:08.867Z,100009.84
2023-01-19T00:17:35.427Z,100002.72
2023-01-19T00:20:01.925Z,100000.84
2023-01-19T00:22:28.425Z,99997.84
2023-01-19T00:24:54.946Z,100007.94
2023-01-19T00:27:21.508Z,100021.03
2023-01-19T00:29:47.969Z,100021.41
2023-01-19T00:32:14.816Z,100026.69
2023-01-19T00:34:49.456Z,100017.75
2023-01-19T00:37:17.302Z,100029.41
2023-01-19T00:39:43.819Z,100026.88
2023-01-19T00:42:31.944Z,100015.72
2023-01-19T00:44:58.439Z,100010.88
2023-01-19T00:47:25.522Z,100016.84
2023-01-19T00:49:52.146Z,100016.09
2023-01-19T00:52:18.811Z,100007.47
2023-01-19T00:54:45.346Z,100007.38
2023-01-19T00:57:12.228Z,100013.72
2023-01-19T00:59:38.748Z,100007.69
2023-01-19T01:02:05.432Z,99999.44
2023-01-19T01:04:32.308Z,100007.31
2023-01-19T01:06:58.910Z,100006.53
2023-01-19T01:09:25.421Z,100002.03
2023-01-19T01:11:51.890Z,99997.53
2023-01-19T01:14:19.277Z,99994.56
2023-01-19T01:16:45.943Z,99997.22
2023-01-19T01:19:12.421Z,100000.22
2023-01-19T01:21:38.916Z,100011.84
2023-01-19T01:24:05.596Z,99997.28
2023-01-19T01:26:32.011Z,99998.88
2023-01-19T01:28:58.429Z,100001.94
2023-01-19T01:31:25.607Z,100004.22
2023-01-19T01:33:52.210Z,100003.84
2023-01-19T01:36:21.224Z,100012.84
2023-01-19T01:38:48.179Z,100009.88
2023-01-19T01:41:14.881Z,100014.72
2023-01-19T01:43:50.821Z,100016.22
2023-01-19T01:46:17.981Z,100018.81
2023-01-19T01:48:50.839Z,100009.81
2023-01-19T01:51:26.869Z,100025.50
2023-01-19T01:54:06.796Z,100012.75
2023-01-19T01:56:37.523Z,100017.19
2023-01-19T01:59:09.169Z,100013.78
2023-01-19T02:01:55.681Z,100011.84
2023-01-19T02:04:23.810Z,100014.03
2023-01-19T02:07:09.353Z,100023.41
2023-01-19T02:09:56.317Z,100025.97
2023-01-19T02:12:41.798Z,100023.69
2023-01-19T02:15:18.875Z,100031.94
2023-01-19T02:17:46.253Z,100028.16
2023-01-19T02:20:13.406Z,100034.16
2023-01-19T02:22:51.220Z,100034.50
2023-01-19T02:25:19.355Z,100030.00
2023-01-19T02:27:46.108Z,100028.47
2023-01-19T02:30:13.887Z,100035.16
2023-01-19T02:32:40.375Z,100032.50
2023-01-19T02:35:07.262Z,100025.69
2023-01-19T02:37:39.965Z,100042.44
2023-01-19T02:40:13.984Z,100054.38
2023-01-19T02:42:48.477Z,100063.69
2023-01-19T02:45:20.547Z,100062.56
2023-01-19T02:47:49.432Z,100063.66
2023-01-19T02:50:33.939Z,100071.53
2023-01-19T02:53:14.265Z,100076.38
2023-01-19T02:55:44.991Z,100080.16
2023-01-19T02:58:51.196Z,100075.63
2023-01-19T03:01:33.537Z,100076.38
2023-01-19T03:04:08.044Z,100079.00
2023-01-19T03:06:50.159Z,100081.63
2023-01-19T03:09:30.925Z,100091.00
2023-01-19T03:12:08.750Z,100100.34
2023-01-19T03:14:42.689Z,100095.44
2023-01-19T03:17:11.779Z,100098.44
2023-01-19T03:19:41.689Z,100086.41
2023-01-19T03:22:19.274Z,100076.28
2023-01-19T03:24:48.409Z,100086.78
2023-01-19T03:27:21.043Z,100088.63
2023-01-19T03:29:53.898Z,100102.50
2023-01-19T03:32:29.664Z,100097.25
2023-01-19T03:35:00.842Z,100103.25
2023-01-19T03:37:31.780Z,100094.28
2023-01-19T03:39:58.300Z,100102.16
2023-01-19T03:42:25.525Z,100105.16
2023-01-19T03:44:56.511Z,100102.19
2023-01-19T03:47:24.039Z,100106.69
2023-01-19T03:49:52.989Z,100111.59
2023-01-19T03:52:27.638Z,100106.00
2023-01-19T03:54:54.146Z,100115.41
2023-01-19T03:57:20.674Z,100116.53
2023-01-19T03:59:47.759Z,100119.56
2023-01-19T04:02:14.785Z,100136.47
2023-01-19T04:04:41.436Z,100137.25
2023-01-19T04:07:10.093Z,100141.06
2023-01-19T04:09:36.681Z,100143.38
2023-01-19T04:12:04.000Z,100135.56
2023-01-19T04:14:30.545Z,100128.47
2023-01-19T04:16:57.031Z,100137.50
2023-01-19T04:19:23.772Z,100130.06
2023-01-19T04:21:50.808Z,100133.47
2023-01-19T04:24:17.973Z,100131.63
2023-01-19T04:26:44.702Z,100130.13
2023-01-19T04:29:11.183Z,100128.28
2023-01-19T04:31:37.717Z,100128.31
2023-01-19T04:34:04.367Z,100127.22
2023-01-19T04:36:31.325Z,100132.13
2023-01-19T04:38:57.763Z,100135.88
2023-01-19T04:41:24.182Z,100138.88
2023-01-19T04:43:50.677Z,100139.28
2023-01-19T04:46:17.179Z,100144.53
2023-01-19T04:48:43.619Z,100152.06
2023-01-19T04:51:10.182Z,100151.69
2023-01-19T04:53:36.745Z,100152.81
2023-01-19T04:56:03.311Z,100156.19
2023-01-19T04:58:29.776Z,100161.81
2023-01-19T05:00:56.289Z,100170.06
2023-01-19T05:03:24.359Z,100161.47
2023-01-19T05:05:52.053Z,100170.47
2023-01-19T05:08:18.590Z,100178.31
2023-01-19T05:10:45.014Z,100181.69
2023-01-19T05:13:11.521Z,100190.31
2023-01-19T05:15:38.032Z,100182.81
2023-01-19T05:18:04.547Z,100192.94
2023-01-19T05:20:31.082Z,100192.19
2023-01-19T05:22:58.020Z,100191.41
2023-01-19T05:25:24.807Z,100189.88
2023-01-19T05:27:51.355Z,100190.25
2023-01-19T05:30:18.113Z,100192.88
2023-01-19T05:32:44.604Z,100193.63
2023-01-19T05:35:11.114Z,100189.44
2023-01-19T05:37:37.547Z,100202.16
2023-01-19T05:40:04.663Z,100201.78
2023-01-19T05:42:32.838Z,100203.28
2023-01-19T05:44:59.480Z,100207.38
2023-01-19T05:47:26.003Z,100214.13
2023-01-19T05:49:52.540Z,100238.06
2023-01-19T05:52:21.201Z,100224.19
2023-01-19T05:54:48.385Z,100225.28
2023-01-19T05:57:14.849Z,100227.53
2023-01-19T05:59:41.331Z,100227.13
2023-01-19T06:02:08.664Z,100225.66
2023-01-19T06:04:35.174Z,100224.91
2023-01-19T06:07:02.234Z,100226.78
2023-01-19T06:09:29.216Z,100227.16
2023-01-19T06:11:57.624Z,100228.69
2023-01-19T06:14:24.668Z,100229.81
2023-01-19T06:16:51.180Z,100242.19
2023-01-19T06:19:17.807Z,100239.94
2023-01-19T06:21:49.694Z,100251.19
2023-01-19T06:24:16.461Z,100260.91
2023-01-19T06:26:43.793Z,100265.38
2023-01-19T06:29:12.034Z,100264.59
2023-01-19T06:31:38.520Z,100274.72
2023-01-19T06:34:05.074Z,100273.59
2023-01-19T06:36:31.711Z,100279.19
2023-01-19T06:38:59.150Z,100297.91
2023-01-19T06:41:25.750Z,100299.41
2023-01-19T06:43:52.283Z,100300.88
2023-01-19T06:46:18.687Z,100292.63
2023-01-19T06:48:45.350Z,100303.47
2023-01-19T06:51:11.833Z,100303.47
2023-01-19T06:53:38.812Z,100302.75
2023-01-19T06:56:06.700Z,100301.25
2023-01-19T06:58:34.907Z,100310.25
2023-01-19T07:01:06.106Z,100300.88
2023-01-19T07:03:33.357Z,100314.00
2023-01-19T07:06:02.429Z,100317.00
2023-01-19T07:08:29.879Z,100322.66
2023-01-19T07:11:25.221Z,100328.66
2023-01-19T07:13:55.348Z,100328.69
2023-01-19T07:16:21.947Z,100327.97
2023-01-19T07:18:48.961Z,100331.00
2023-01-19T07:21:15.507Z,100340.00
2023-01-19T07:23:43.694Z,100341.94
2023-01-19T07:26:10.521Z,100349.81
2023-01-19T07:28:37.226Z,100355.84
2023-01-19T07:31:04.033Z,100355.09
2023-01-19T07:33:30.628Z,100365.22
2023-01-19T07:35:57.305Z,100361.84
2023-01-19T07:38:24.012Z,100371.97
2023-01-19T07:40:50.459Z,100376.47
2023-01-19T07:43:17.081Z,100375.31
2023-01-19T07:45:44.833Z,100371.97
2023-01-19T07:48:11.425Z,100376.06
2023-01-19T07:50:38.020Z,100387.28
2023-01-19T07:53:06.942Z,100387.66
2023-01-19T07:55:33.442Z,100387.28
2023-01-19T07:58:00.056Z,100400.00
2023-01-19T08:00:26.741Z,100400.75
2023-01-19T08:02:53.819Z,100405.25
2023-01-19T08:05:21.122Z,100403.41
2023-01-19T08:07:48.489Z,100416.53
2023-01-19T08:10:16.452Z,100420.28
2023-01-19T08:12:43.168Z,100419.91
2023-01-19T08:15:11.225Z,100424.78
2023-01-19T08:17:37.803Z,100431.16
2023-01-19T08:20:04.965Z,100439.03
2023-01-19T08:22:31.477Z,100434.53
2023-01-19T08:24:57.900Z,100435.28
2023-01-19T08:27:24.452Z,100437.16
2023-01-19T08:29:50.928Z,100448.38
2023-01-19T08:32:17.509Z,100449.53
2023-01-19T08:34:44.091Z,100449.91
2023-01-19T08:37:10.747Z,100447.25
2023-01-19T08:39:37.305Z,100456.25
2023-01-19T08:42:04.113Z,100457.75
2023-01-19T08:44:30.565Z,100461.47
2023-01-19T08:46:56.998Z,100468.97
2023-01-19T08:49:23.439Z,100470.44
2023-01-19T08:51:50.375Z,100464.81
2023-01-19T08:54:18.543Z,100471.88
2023-01-19T08:56:45.262Z,100468.09
2023-01-19T08:59:13.112Z,100481.94
2023-01-19T09:01:41.291Z,100484.16
2023-01-19T09:04:07.955Z,100487.88
2023-01-19T09:06:34.562Z,100489.38
2023-01-19T09:09:01.098Z,100490.84
2023-01-19T09:11:27.612Z,100489.28
2023-01-19T09:13:54.357Z,100490.00
2023-01-19T09:16:20.947Z,100483.59
2023-01-19T09:18:47.452Z,100488.44
2023-01-19T09:21:14.961Z,100497.75
2023-01-19T09:23:41.429Z,100492.84
2023-01-19T09:26:07.936Z,100497.72
2023-01-19T09:28:34.887Z,100496.22
2023-01-19T09:31:06.568Z,100501.06
2023-01-19T09:33:34.188Z,100495.06
2023-01-19T09:36:01.989Z,100501.06
2023-01-19T09:38:31.464Z,100502.53
2023-01-19T09:40:59.326Z,100505.88
2023-01-19T09:43:37.763Z,100509.22
2023-01-19T09:46:11.454Z,100500.56
2023-01-19T09:48:53.793Z,100505.03
2023-01-19T09:51:34.890Z,100515.47
2023-01-19T09:54:15.772Z,100515.06
2023-01-19T09:56:47.538Z,100521.03
2023-01-19T09:59:25.178Z,100521.41
2023-01-19T10:02:19.181Z,100525.47
2023-01-19T10:05:10.591Z,100525.78
2023-01-19T10:07:37.010Z,100522.75
2023-01-19T10:10:25.983Z,100528.34
2023-01-19T10:12:52.473Z,100532.44
2023-01-19T10:16:14.341Z,100532.41
2023-01-19T10:18:51.592Z,100537.25
2023-01-19T10:21:22.602Z,100537.97
2023-01-19T10:24:01.533Z,100539.44
2023-01-19T10:26:38.711Z,100538.25
2023-01-19T10:29:09.559Z,100550.97
2023-01-19T10:31:40.161Z,100549.03
2023-01-19T10:34:06.763Z,100547.88
2023-01-19T10:36:38.188Z,100543.72
2023-01-19T10:39:06.560Z,100545.19
2023-01-19T10:41:44.912Z,100550.38
2023-01-19T10:44:12.022Z,100552.97
2023-01-19T10:46:44.032Z,100551.06
2023-01-19T10:49:42.590Z,100545.03
2023-01-19T10:52:23.619Z,100552.47
2023-01-19T10:54:50.313Z,100546.03
2023-01-19T10:57:28.043Z,100546.72
2023-01-19T10:59:54.483Z,100550.06
2023-01-19T11:02:28.441Z,100542.13
2023-01-19T11:05:00.800Z,100543.59
2023-01-19T11:07:32.982Z,100551.00
2023-01-19T11:10:17.870Z,100555.44
2023-01-19T11:12:53.930Z,100555.75
2023-01-19T11:15:30.165Z,100552.75
2023-01-19T11:17:56.940Z,100563.63
2023-01-19T11:20:28.205Z,100559.44
2023-01-19T11:23:14.629Z,100562.03
2023-01-19T11:25:46.595Z,100559.81
2023-01-19T11:28:22.752Z,100560.25
2023-01-19T11:30:59.861Z,100564.06
2023-01-19T11:33:34.565Z,100568.66
2023-01-19T11:36:16.786Z,100559.97
2023-01-19T11:38:45.539Z,100569.28
2023-01-19T11:41:26.258Z,100563.63
2023-01-19T11:44:00.213Z,100558.72
2023-01-19T11:46:32.863Z,100562.44
2023-01-19T11:49:04.701Z,100563.19
2023-01-19T11:51:36.174Z,100560.50
2023-01-19T11:54:17.736Z,100560.56
2023-01-19T11:56:46.058Z,100560.19
2023-01-19T11:59:13.652Z,100569.63
2023-01-19T12:01:48.377Z,100560.63
2023-01-19T12:04:27.465Z,100570.03
2023-01-19T12:06:55.740Z,100566.56
2023-01-19T12:09:26.888Z,100572.03
2023-01-19T12:12:00.633Z,100569.75
2023-01-19T12:14:35.332Z,100574.72
2023-01-19T12:17:05.620Z,100570.63
2023-01-19T12:19:46.394Z,100571.81
2023-01-19T12:22:17.513Z,100570.78
2023-01-19T12:25:12.217Z,100565.63
2023-01-19T12:27:46.707Z,100566.44
2023-01-19T12:30:26.561Z,100574.44
2023-01-19T12:33:22.073Z,100566.22
2023-01-19T12:36:00.791Z,100569.28
2023-01-19T12:38:54.894Z,100567.81
2023-01-19T12:41:37.893Z,100567.84
2023-01-19T12:44:16.369Z,100576.50
2023-01-19T12:46:52.093Z,100576.16
2023-01-19T12:49:42.644Z,100582.91
2023-01-19T12:52:33.939Z,100577.25
2023-01-19T12:55:12.716Z,100576.06
2023-01-19T12:57:50.774Z,100574.47
2023-01-19T13:00:23.458Z,100582.91
2023-01-19T13:02:57.933Z,100576.75
2023-01-19T13:05:32.489Z,100579.28
2023-01-19T13:08:02.310Z,100582.63
2023-01-19T13:10:59.535Z,100589.72
2023-01-19T13:13:33.405Z,100584.06
2023-01-19T13:16:19.948Z,100585.91
2023-01-19T13:18:54.020Z,100572.66
2023-01-19T13:21:28.705Z,100581.19
2023-01-19T13:24:03.517Z,100577.41
2023-01-19T13:26:35.454Z,100585.66
2023-01-19T13:29:15.466Z,100582.56
2023-01-19T13:31:44.710Z,100588.19
2023-01-19T13:34:14.866Z,100593.47
2023-01-19T13:36:45.635Z,100590.78
2023-01-19T13:39:18.671Z,100588.88
2023-01-19T13:41:47.048Z,100595.69
2023-01-19T13:44:47.186Z,100595.41
2023-01-19T13:47:21.485Z,100599.97
2023-01-19T13:49:56.046Z,100603.75
2023-01-19T13:52:26.534Z,100599.69
2023-01-19T13:55:03.282Z,100603.13
2023-01-19T13:57:31.508Z,100603.88
2023-01-19T14:00:14.276Z,100607.28
2023-01-19T14:02:45.649Z,100605.84
2023-01-19T14:05:16.011Z,100607.41
2023-01-19T14:07:42.496Z,100608.59
2023-01-19T14:10:17.266Z,100621.81
2023-01-19T14:12:58.532Z,100620.34
2023-01-19T14:15:25.889Z,100626.41
2023-01-19T14:18:10.015Z,100624.56
2023-01-19T14:20:37.130Z,100625.78
2023-01-19T14:23:04.594Z,100623.53
2023-01-19T14:25:39.494Z,100633.00
2023-01-19T14:28:28.464Z,100628.16
2023-01-19T14:30:57.239Z,100632.72
2023-01-19T14:33:58.290Z,100628.22
2023-01-19T14:36:38.033Z,100633.13
2023-01-19T14:39:06.285Z,100638.78
2023-01-19T14:41:39.966Z,100635.81
2023-01-19T14:44:11.555Z,100636.19
2023-01-19T14:46:38.448Z,100634.69
2023-01-19T14:49:06.423Z,100637.72
2023-01-19T14:51:33.103Z,100635.47
2023-01-19T14:54:01.784Z,100639.63
2023-01-19T14:56:31.389Z,100638.16
2023-01-19T14:59:00.654Z,100631.00
2023-01-19T15:01:31.769Z,100634.41
2023-01-19T15:03:58.517Z,100633.72
2023-01-19T15:06:26.516Z,100637.53
2023-01-19T15:08:53.650Z,100634.56
2023-01-19T15:11:33.846Z,100629.72
2023-01-19T15:14:01.263Z,100629.38
2023-01-19T15:16:29.779Z,100635.75
2023-01-19T15:18:56.532Z,100638.78
2023-01-19T15:21:23.699Z,100647.44
2023-01-19T15:23:50.661Z,100647.84
2023-01-19T15:26:20.761Z,100649.00
2023-01-19T15:28:50.435Z,100657.66
2023-01-19T15:31:19.816Z,100655.81
2023-01-19T15:33:46.579Z,100665.97
2023-01-19T15:36:18.450Z,100667.50
2023-01-19T15:38:46.036Z,100669.06
2023-01-19T15:41:27.154Z,100674.69
2023-01-19T15:43:53.774Z,100672.09
2023-01-19T15:46:23.400Z,100677.34
2023-01-19T15:48:50.596Z,100681.88
2023-01-19T15:51:20.077Z,100676.69
2023-01-19T15:53:47.561Z,100678.22
2023-01-19T15:56:25.910Z,100678.66
2023-01-19T15:58:53.561Z,100678.69
2023-01-19T16:01:23.860Z,100687.34
2023-01-19T16:03:50.619Z,100697.88
2023-01-19T16:06:18.458Z,100691.91
2023-01-19T16:08:45.069Z,100693.81
2023-01-19T16:11:15.691Z,100702.50
2023-01-19T16:13:49.230Z,100695.38
2023-01-19T16:16:22.017Z,100692.41
2023-01-19T16:18:48.694Z,100698.41
2023-01-19T16:21:15.493Z,100698.44
2023-01-19T16:23:42.182Z,100705.19
2023-01-19T16:26:27.090Z,100700.31
2023-01-19T16:28:57.500Z,100710.06
2023-01-19T16:31:24.105Z,100704.50
2023-01-19T16:33:50.606Z,100714.63
2023-01-19T16:36:19.751Z,100716.88
2023-01-19T16:38:46.314Z,100720.25
2023-01-19T16:41:12.821Z,100722.88
2023-01-19T16:43:39.233Z,100729.63
2023-01-19T16:46:05.833Z,100727.00
2023-01-19T16:48:32.389Z,100729.28
2023-01-19T16:51:04.461Z,100728.91
2023-01-19T16:53:34.290Z,100730.41
2023-01-19T16:56:22.337Z,100728.88
2023-01-19T16:58:52.568Z,100731.13
2023-01-19T17:01:20.487Z,100738.59
2023-01-19T17:03:47.620Z,100739.72
2023-01-19T17:06:23.053Z,100746.09
2023-01-19T17:08:51.055Z,100750.94
2023-01-19T17:11:22.812Z,100752.06
2023-01-19T17:13:53.944Z,100750.91
2023-01-19T17:16:21.303Z,100755.00
2023-01-19T17:18:48.202Z,100755.34
2023-01-19T17:21:18.038Z,100750.50
2023-01-19T17:23:46.536Z,100760.59
2023-01-19T17:26:13.865Z,100762.44
2023-01-19T17:28:40.509Z,100770.28
2023-01-19T17:31:13.991Z,100769.19
2023-01-19T17:33:43.057Z,100768.38
2023-01-19T17:36:14.893Z,100771.75
2023-01-19T17:38:41.594Z,100777.69
2023-01-19T17:41:16.417Z,100773.16
2023-01-19T17:43:43.903Z,100766.06
2023-01-19T17:46:10.601Z,100778.75
2023-01-19T17:48:37.900Z,100772.38
2023-01-19T17:51:10.275Z,100770.13
2023-01-19T17:53:38.029Z,100771.97
2023-01-19T17:56:29.535Z,100770.84
2023-01-19T17:58:57.702Z,100774.56
2023-01-19T18:01:29.996Z,100774.56
2023-01-19T18:03:57.734Z,100773.41
2023-01-19T18:06:24.827Z,100778.63
2023-01-19T18:09:00.271Z,100777.13
2023-01-19T18:11:29.654Z,100786.44
2023-01-19T18:13:56.278Z,100789.06
2023-01-19T18:16:28.258Z,100789.06
2023-01-19T18:18:56.109Z,100787.19
2023-01-19T18:21:24.548Z,100789.81
2023-01-19T18:23:51.569Z,100786.06
2023-01-19T18:26:22.331Z,100793.91
2023-01-19T18:28:50.077Z,100791.28
2023-01-19T18:31:18.650Z,100808.50
2023-01-19T18:33:45.501Z,100811.13
2023-01-19T18:36:11.993Z,100808.50
2023-01-19T18:38:39.788Z,100804.78
2023-01-19T18:41:18.162Z,100808.53
2023-01-19T18:43:45.409Z,100809.28
2023-01-19T18:46:11.962Z,100810.03
2023-01-19T18:48:39.422Z,100803.66
2023-01-19T18:51:11.401Z,100808.16
2023-01-19T18:53:52.975Z,100807.78
2023-01-19T18:56:19.474Z,100804.78
2023-01-19T18:58:46.060Z,100804.03
2023-01-19T19:01:26.323Z,100802.91
2023-01-19T19:03:54.580Z,100818.25
2023-01-19T19:06:21.965Z,100816.41
2023-01-19T19:08:50.708Z,100826.09
2023-01-19T19:11:22.289Z,100821.25
2023-01-19T19:13:53.521Z,100829.50
2023-01-19T19:16:19.990Z,100837.75
2023-01-19T19:18:49.810Z,100837.78
2023-01-19T19:21:17.439Z,100840.78
2023-01-19T19:23:44.023Z,100850.13
2023-01-19T19:26:12.124Z,100851.63
2023-01-19T19:28:40.403Z,100845.28
2023-01-19T19:31:20.443Z,100846.78
2023-01-19T19:33:48.564Z,100853.88
2023-01-19T19:36:15.137Z,100859.50
2023-01-19T19:38:42.773Z,100861.00
2023-01-19T19:41:13.079Z,100861.75
2023-01-19T19:43:39.858Z,100864.78
2023-01-19T19:46:09.544Z,100868.53
2023-01-19T19:48:39.132Z,100877.53
2023-01-19T19:51:17.938Z,100875.66
2023-01-19T19:53:46.062Z,100876.03
2023-01-19T19:56:13.443Z,100884.28
2023-01-19T19:58:41.862Z,100899.25
2023-01-19T20:01:14.191Z,100897.78
2023-01-19T20:03:40.960Z,100891.81
2023-01-19T20:06:14.864Z,100893.28
2023-01-19T20:08:41.556Z,100891.03
2023-01-19T20:11:13.735Z,100897.75
2023-01-19T20:13:42.332Z,100894.78
2023-01-19T20:16:14.931Z,100900.41
2023-01-19T20:18:43.379Z,100900.41
2023-01-19T20:21:17.758Z,100908.25
2023-01-19T20:23:45.419Z,100915.00
2023-01-19T20:26:14.901Z,100920.25
2023-01-19T20:28:41.660Z,100922.47
2023-01-19T20:31:32.154Z,100922.09
2023-01-19T20:34:00.984Z,100937.81
2023-01-19T20:36:28.805Z,100938.19
2023-01-19T20:38:55.935Z,100937.44
2023-01-19T20:41:23.477Z,100941.16
2023-01-19T20:43:50.369Z,100953.81
2023-01-19T20:46:17.756Z,100952.69
2023-01-19T20:48:45.766Z,100950.81
2023-01-19T20:51:13.445Z,100957.56
2023-01-19T20:53:41.381Z,100959.81
2023-01-19T20:56:11.741Z,100963.94
2023-01-19T20:58:38.523Z,100964.69
2023-01-19T21:01:20.176Z,100961.31
2023-01-19T21:03:47.527Z,100954.97
2023-01-19T21:06:14.645Z,100952.72
2023-01-19T21:08:41.787Z,100951.25
2023-01-19T21:11:09.170Z,100949.75
2023-01-19T21:13:36.325Z,100950.88
2023-01-19T21:16:03.906Z,100949.75
2023-01-19T21:18:30.528Z,100943.75
2023-01-19T21:20:57.749Z,100941.50
2023-01-19T21:23:26.087Z,100945.22
2023-01-19T21:25:58.017Z,100953.81
2023-01-19T21:28:25.297Z,100960.19
2023-01-19T21:30:53.164Z,100967.28
2023-01-19T21:33:21.048Z,100970.25
2023-01-19T21:35:57.597Z,100973.59
2023-01-19T21:38:28.672Z,100968.72
2023-01-19T21:40:57.059Z,100967.59
2023-01-19T21:43:24.123Z,100969.06
2023-01-19T21:45:50.914Z,100971.31
2023-01-19T21:48:17.984Z,100970.16
2023-01-19T21:50:44.564Z,100969.38
2023-01-19T21:53:11.794Z,100977.59
2023-01-19T21:55:42.687Z,100979.81
2023-01-19T21:58:09.169Z,100982.78
2023-01-19T22:00:35.682Z,100990.59
2023-01-19T22:03:04.588Z,100991.31
2023-01-19T22:05:36.818Z,100990.91
2023-01-19T22:08:04.005Z,100999.88
2023-01-19T22:10:30.483Z,100988.28
2023-01-19T22:12:57.033Z,101004.69
2023-01-19T22:15:23.484Z,101011.41
2023-01-19T22:17:49.885Z,101016.69
2023-01-19T22:20:16.590Z,101016.69
2023-01-19T22:22:43.048Z,101024.53
2023-01-19T22:25:10.237Z,101026.81
2023-01-19T22:27:37.385Z,101027.19
2023-01-19T22:30:04.193Z,101033.53
2023-01-19T22:32:31.253Z,101030.53
2023-01-19T22:34:57.699Z,101038.72
2023-01-19T22:37:24.576Z,101037.63
2023-01-19T22:39:52.588Z,101031.63
2023-01-19T22:42:19.118Z,101041.38
2023-01-19T22:44:46.772Z,101036.91
2023-01-19T22:47:13.374Z,101034.28
2023-01-19T22:49:40.647Z,101032.78
2023-01-19T22:52:07.120Z,101029.03
2023-01-19T22:54:33.751Z,101030.50
2023-01-19T22:57:00.185Z,101027.47
2023-01-19T22:59:26.758Z,101037.53
2023-01-19T23:01:53.525Z,101041.28
2023-01-19T23:04:20.208Z,101048.00
2023-01-19T23:06:50.281Z,101044.63
2023-01-19T23:09:18.145Z,101042.41
2023-01-19T23:11:51.127Z,101039.44
2023-01-19T23:14:21.098Z,101042.41
2023-01-19T23:16:48.388Z,101041.28
2023-01-19T23:19:17.058Z,101040.16
2023-01-19T23:21:44.498Z,101041.66
2023-01-19T23:24:11.621Z,101034.94
2023-01-19T23:26:38.564Z,101036.03
2023-01-19T23:29:08.018Z,101038.25
2023-01-19T23:31:36.869Z,101038.97
2023-01-19T23:34:08.478Z,101043.06
2023-01-19T23:36:37.763Z,101037.81
2023-01-19T23:39:16.837Z,101039.28
2023-01-19T23:41:43.802Z,101039.22
2023-01-19T23:44:10.333Z,101042.56
2023-01-19T23:46:37.022Z,101053.38
2023-01-19T23:49:03.530Z,101054.47
2023-01-19T23:51:31.393Z,101054.06
2023-01-19T23:53:59.376Z,101050.31
2023-01-19T23:56:28.373Z,101047.28
2023-01-19T23:58:57.626Z,101051.00
